Terminal Aerodrome Forecast
Issued by NWS Omaha/Valley, NE

Home | Current Version | Previous Version | Graphics & Text | Print | Product List | Glossary On
Versions: 1 2 3 4 5 6 7 8 9 10 11 12 13 14 15 16 17 18 19 20 21 22 23 24 25 26 27 28 29 30 31 32 33 34 35 36 37 38 39 40 41 42 43 44
084
FTUS43 KOAX 300112 AAB
TAFOFK
TAF AMD
KOFK 300112Z 3001/3024 04015G25KT P6SM OVC040
      TEMPO 3003/3007 4SM -RA OVC025
     FM300700 03015G23KT 5SM -RA OVC020
     FM301000 02020G28KT 6SM RA OVC008
     FM301500 01022G30KT 3SM -RA OVC008
      TEMPO 3015/3019 2SM RASN=

USA.gov is the U.S. government's official web portal to all federal, state and local government web resources and services.